KBRO

Brownsville/South Padre Island International Airport

Airport
ICAO code
KBRO
Summary
ICAO Region
NAM
ICAO Territory
Location

Brownsville/South Padre Island International Airport,

Coordinates
25° 54' 23" N , 97° 25' 55" W
KCC
Cfa
Airport LOS
Parallel Runway Operation
Metar
Observation
KBRO 081753Z 10013G19KT 10SM CLR 33/24 A3003 RMK AO2 LTG DSNT SW SLP169 60005 T03280239 10328 20250 50002
Station
Brownsville, Brownsville / South Padre Island International Airport
Date/Time
2022-08-08 17:53:00
Wind direction
100°
Wind speed
13 kts
Lowest cloud amount
n/a
Temperature
32.8°C
Dew point
23.9°C
Humidity
59%
Weather condition
n/a

Description

Brownsville/South Padre Island International Airport is a public use airport located 7 km east of the central business district of Brownsville, a city in Cameron County, Texas.

Climatology

Humid “subtropical” climate (Köppen climate classification Cfa) - characterized by hot, humid summers and mild winters. Most rainfall occurs during summer and is often associated with thunderstorms and occasional tropical storms (hurricanes).

Airport map

Aerial View

SKYbrary Partners:

Safety knowledge contributed by: